createdAt,value
2023-01-06T00:05:02.372Z,0
2023-01-06T00:11:25.372Z,0
2023-01-06T00:17:45.471Z,0
2023-01-06T00:24:08.383Z,0
2023-01-06T00:30:28.345Z,0
2023-01-06T00:36:51.544Z,0
2023-01-06T00:43:11.397Z,0
2023-01-06T00:49:34.400Z,0
2023-01-06T00:55:54.474Z,0
2023-01-06T01:02:17.599Z,0
2023-01-06T01:08:37.363Z,0
2023-01-06T01:15:00.514Z,0
2023-01-06T01:21:20.378Z,0
2023-01-06T01:27:43.414Z,0
2023-01-06T01:34:03.470Z,0
2023-01-06T01:40:26.323Z,0
2023-01-06T01:46:46.350Z,0
2023-01-06T01:53:09.380Z,0
2023-01-06T01:59:29.368Z,0
2023-01-06T02:05:52.394Z,0
2023-01-06T02:12:12.493Z,0
2023-01-06T02:18:35.362Z,0
2023-01-06T02:24:55.363Z,0
2023-01-06T02:31:18.461Z,0
2023-01-06T02:37:38.386Z,0
2023-01-06T02:44:01.358Z,0
2023-01-06T02:50:21.465Z,0
2023-01-06T02:56:44.373Z,0
2023-01-06T03:03:04.366Z,0
2023-01-06T03:09:27.472Z,0
2023-01-06T03:15:47.390Z,0
2023-01-06T03:22:10.351Z,0
2023-01-06T03:28:30.491Z,0
2023-01-06T03:34:53.358Z,0
2023-01-06T03:41:13.373Z,0
2023-01-06T03:47:36.591Z,0
2023-01-06T03:53:56.379Z,0
2023-01-06T04:00:19.323Z,0
2023-01-06T04:06:39.467Z,0
2023-01-06T04:13:02.366Z,0
2023-01-06T04:19:22.359Z,0
2023-01-06T04:25:45.495Z,0
2023-01-06T04:32:05.375Z,0
2023-01-06T04:48:34.362Z,0
2023-01-06T04:54:54.367Z,0
2023-01-06T05:01:17.594Z,0
2023-01-06T05:07:37.472Z,0
2023-01-06T05:14:00.359Z,0
2023-01-06T05:20:20.367Z,0
2023-01-06T05:26:43.440Z,0
2023-01-06T05:33:03.378Z,0
2023-01-06T05:39:26.418Z,0
2023-01-06T05:45:46.505Z,0
2023-01-06T05:52:09.429Z,0
2023-01-06T05:58:29.322Z,0
2023-01-06T06:04:52.460Z,0
2023-01-06T06:11:12.371Z,0
2023-01-06T06:17:35.333Z,0
2023-01-06T06:23:55.517Z,0
2023-01-06T06:30:18.333Z,0
2023-01-06T06:36:38.369Z,0
2023-01-06T06:43:01.471Z,0
2023-01-06T06:49:21.334Z,0
2023-01-06T06:55:44.402Z,0
2023-01-06T07:02:04.475Z,0
2023-01-06T07:08:27.389Z,1
2023-01-06T07:14:47.361Z,2
2023-01-06T07:21:10.656Z,8
2023-01-06T07:27:30.365Z,21
2023-01-06T07:33:53.354Z,45
2023-01-06T07:40:13.459Z,72
2023-01-06T07:46:36.417Z,120
2023-01-06T07:52:56.351Z,175
2023-01-06T07:59:19.428Z,204
2023-01-06T08:05:39.368Z,254
2023-01-06T08:12:02.362Z,271
2023-01-06T08:18:22.537Z,287
2023-01-06T08:24:45.347Z,347
2023-01-06T08:31:05.458Z,576
2023-01-06T08:37:29.244Z,566
2023-01-06T08:43:48.335Z,738
2023-01-06T08:50:11.390Z,612
2023-01-06T08:56:31.554Z,421
2023-01-06T09:02:54.384Z,610
2023-01-06T09:09:14.375Z,520
2023-01-06T09:15:37.485Z,402
2023-01-06T09:21:58.288Z,391
2023-01-06T09:28:20.337Z,420
2023-01-06T09:34:40.493Z,584
2023-01-06T09:41:03.368Z,785
2023-01-06T09:47:23.424Z,659
2023-01-06T09:53:46.539Z,1136
2023-01-06T10:00:06.347Z,1309
2023-01-06T10:16:34.396Z,1381
2023-01-06T10:22:54.365Z,1520
2023-01-06T10:29:17.344Z,1343
2023-01-06T10:35:37.498Z,1109
2023-01-06T10:42:00.386Z,1618
2023-01-06T10:48:20.385Z,1153
2023-01-06T10:54:43.487Z,1306
2023-01-06T11:01:03.424Z,1268
2023-01-06T11:07:26.559Z,1512
2023-01-06T11:13:46.545Z,1025
2023-01-06T11:20:09.403Z,1297
2023-01-06T11:26:29.440Z,1532
2023-01-06T11:32:52.487Z,1900
2023-01-06T11:39:12.393Z,2050
2023-01-06T11:45:35.448Z,1457
2023-01-06T11:51:55.493Z,1698
2023-01-06T11:58:18.353Z,1651
2023-01-06T12:04:38.353Z,1979
2023-01-06T12:11:01.514Z,2268
2023-01-06T12:17:21.618Z,2493
2023-01-06T12:23:44.578Z,1005
2023-01-06T12:30:04.697Z,1353
2023-01-06T12:36:27.400Z,1261
2023-01-06T12:42:47.417Z,985
2023-01-06T12:49:10.504Z,1289
2023-01-06T12:55:30.391Z,1587
2023-01-06T13:01:53.486Z,1525
2023-01-06T13:08:13.512Z,962
2023-01-06T13:14:36.357Z,728
2023-01-06T13:20:56.377Z,602
2023-01-06T13:27:19.543Z,842
2023-01-06T13:33:39.407Z,1367
2023-01-06T13:40:02.507Z,1072
2023-01-06T13:46:22.573Z,809
2023-01-06T13:52:45.398Z,744
2023-01-06T13:59:05.505Z,735
2023-01-06T14:05:28.464Z,812
2023-01-06T14:11:48.697Z,817
2023-01-06T14:18:11.352Z,571
2023-01-06T14:24:31.765Z,566
2023-01-06T14:30:54.379Z,565
2023-01-06T14:37:14.379Z,387
2023-01-06T14:43:37.491Z,320
2023-01-06T14:49:57.344Z,317
2023-01-06T14:56:20.386Z,186
2023-01-06T15:02:40.688Z,210
2023-01-06T15:09:03.367Z,247
2023-01-06T15:15:23.399Z,267
2023-01-06T15:40:44.863Z,47
2023-01-06T15:47:04.357Z,37
2023-01-06T15:53:27.329Z,14
2023-01-06T15:59:47.444Z,6
2023-01-06T16:06:12.328Z,2
2023-01-06T16:12:30.378Z,1
2023-01-06T16:18:53.464Z,0
2023-01-06T16:25:13.369Z,0
2023-01-06T16:31:36.494Z,0
2023-01-06T16:37:56.459Z,0
2023-01-06T16:44:19.394Z,0
2023-01-06T16:50:39.388Z,0
2023-01-06T16:57:02.571Z,0
2023-01-06T17:03:22.393Z,0
2023-01-06T17:09:45.375Z,0
2023-01-06T17:16:05.605Z,0
2023-01-06T17:22:28.340Z,0
2023-01-06T17:28:48.333Z,0
2023-01-06T17:35:11.469Z,0
2023-01-06T17:41:31.366Z,0
2023-01-06T17:47:54.581Z,0
2023-01-06T17:54:14.688Z,0
2023-01-06T18:00:37.468Z,0
2023-01-06T18:06:57.333Z,0
2023-01-06T18:13:20.465Z,0
2023-01-06T18:19:40.346Z,0
2023-01-06T18:26:03.324Z,0
2023-01-06T18:32:23.576Z,0
2023-01-06T18:38:46.567Z,0
2023-01-06T18:45:06.345Z,0
2023-01-06T18:51:29.528Z,0
2023-01-06T18:57:49.338Z,0
2023-01-06T19:04:12.506Z,0
2023-01-06T19:10:32.470Z,0
2023-01-06T19:16:55.329Z,0
2023-01-06T19:23:15.399Z,0
2023-01-06T19:29:38.451Z,0
2023-01-06T19:35:58.673Z,0
2023-01-06T19:42:21.387Z,0
2023-01-06T19:48:41.466Z,0
2023-01-06T19:55:04.411Z,0
2023-01-06T20:01:24.524Z,0
2023-01-06T20:07:47.512Z,0
2023-01-06T20:14:07.518Z,0
2023-01-06T20:20:30.367Z,0
2023-01-06T20:26:50.500Z,0
2023-01-06T20:33:13.334Z,0
2023-01-06T20:39:33.388Z,0
2023-01-06T20:45:56.659Z,0
2023-01-06T21:02:22.309Z,0
2023-01-06T21:08:44.855Z,0
2023-01-06T21:15:04.350Z,0
2023-01-06T21:21:27.533Z,0
2023-01-06T21:27:47.327Z,0
2023-01-06T21:34:10.455Z,0
2023-01-06T21:40:30.482Z,0
2023-01-06T21:46:53.393Z,0
2023-01-06T21:53:13.396Z,0
2023-01-06T21:59:36.441Z,0
2023-01-06T22:05:56.560Z,0
2023-01-06T22:12:19.370Z,0
2023-01-06T22:18:39.385Z,0
2023-01-06T22:25:02.446Z,0
2023-01-06T22:31:22.391Z,0
2023-01-06T22:37:45.459Z,0
2023-01-06T22:44:05.349Z,0
2023-01-06T22:50:28.362Z,0
2023-01-06T22:56:48.509Z,0
2023-01-06T23:21:06.453Z,0
2023-01-06T23:27:26.353Z,0
2023-01-06T23:33:49.331Z,0
2023-01-06T23:40:09.528Z,0
2023-01-06T23:46:32.381Z,0
2023-01-06T23:52:54.620Z,0
2023-01-06T23:59:15.451Z,0
